createdAt,value
2022-11-08T00:01:33.511Z,15.07
2022-11-08T00:04:20.297Z,17.50
2022-11-08T00:07:25.025Z,17.20
2022-11-08T00:10:29.367Z,16.55
2022-11-08T00:13:33.755Z,15.80
2022-11-08T00:16:19.899Z,18.08
2022-11-08T00:19:05.881Z,17.30
2022-11-08T00:21:52.096Z,17.10
2022-11-08T00:24:37.985Z,15.88
2022-11-08T00:27:24.319Z,16.83
2022-11-08T00:30:10.387Z,15.10
2022-11-08T00:32:56.621Z,16.63
2022-11-08T00:35:45.658Z,4.80
2022-11-08T00:38:31.496Z,15.82
2022-11-08T00:41:17.795Z,12.93
2022-11-08T00:44:03.873Z,16.20
2022-11-08T00:46:50.130Z,15.73
2022-11-08T00:49:36.398Z,9.20
2022-11-08T00:52:22.410Z,16.45
2022-11-08T00:55:08.315Z,15.30
2022-11-08T00:57:59.661Z,8.98
2022-11-08T01:00:46.415Z,13.20
2022-11-08T01:03:32.590Z,15.10
2022-11-08T01:06:19.655Z,7.35
2022-11-08T01:09:05.834Z,14.00
2022-11-08T01:11:51.875Z,10.60
2022-11-08T01:14:39.208Z,15.18
2022-11-08T01:17:25.291Z,6.03
2022-11-08T01:20:11.838Z,18.70
2022-11-08T01:23:17.781Z,14.90
2022-11-08T01:26:05.785Z,15.18
2022-11-08T01:28:51.875Z,14.95
2022-11-08T01:31:37.600Z,13.93
2022-11-08T01:34:23.681Z,14.32
2022-11-08T01:37:09.776Z,9.98
2022-11-08T01:39:55.909Z,16.25
2022-11-08T01:42:42.187Z,15.40
2022-11-08T01:45:47.067Z,6.78
2022-11-08T01:48:32.943Z,14.50
2022-11-08T01:51:20.994Z,8.32
2022-11-08T01:54:09.405Z,14.48
2022-11-08T01:56:55.672Z,13.70
2022-11-08T01:59:42.914Z,13.50
2022-11-08T02:02:28.879Z,13.55
2022-11-08T02:05:25.827Z,13.35
2022-11-08T02:08:31.848Z,14.23
2022-11-08T02:11:18.799Z,13.75
2022-11-08T02:14:05.047Z,14.45
2022-11-08T02:16:51.019Z,3.30
2022-11-08T02:19:37.019Z,13.23
2022-11-08T02:22:23.245Z,12.27
2022-11-08T02:25:28.078Z,6.75
2022-11-08T02:28:13.993Z,12.68
2022-11-08T02:30:59.998Z,14.00
2022-11-08T02:33:46.857Z,13.02
2022-11-08T02:36:32.976Z,11.80
2022-11-08T02:39:19.063Z,12.43
2022-11-08T02:42:05.492Z,12.07
2022-11-08T02:44:51.760Z,7.82
2022-11-08T02:47:37.795Z,12.85
2022-11-08T02:50:23.560Z,13.23
2022-11-08T02:53:09.876Z,12.77
2022-11-08T02:55:56.175Z,12.40
2022-11-08T02:58:42.080Z,12.52
2022-11-08T03:01:28.378Z,13.10
2022-11-08T03:04:14.487Z,12.73
2022-11-08T03:07:00.548Z,12.45
2022-11-08T03:09:46.579Z,13.80
2022-11-08T03:12:32.540Z,13.95
2022-11-08T03:15:18.615Z,12.32
2022-11-08T03:18:04.795Z,12.18
2022-11-08T03:20:50.925Z,12.30
2022-11-08T03:23:37.286Z,10.95
2022-11-08T03:26:23.327Z,7.38
2022-11-08T03:29:09.428Z,10.95
2022-11-08T03:31:55.587Z,13.10
2022-11-08T03:34:41.924Z,12.27
2022-11-08T03:37:27.932Z,13.65
2022-11-08T03:40:14.226Z,12.63
2022-11-08T03:43:00.377Z,12.35
2022-11-08T03:45:46.689Z,8.93
2022-11-08T03:48:32.580Z,12.90
2022-11-08T03:51:18.665Z,8.45
2022-11-08T03:54:04.666Z,12.82
2022-11-08T03:56:50.823Z,12.80
2022-11-08T03:59:36.534Z,12.20
2022-11-08T04:02:22.550Z,12.40
2022-11-08T04:05:09.737Z,11.88
2022-11-08T04:07:55.807Z,8.48
2022-11-08T04:10:42.626Z,12.75
2022-11-08T04:13:47.377Z,11.43
2022-11-08T04:16:33.493Z,12.18
2022-11-08T04:19:38.189Z,12.23
2022-11-08T04:22:24.164Z,5.15
2022-11-08T04:25:10.179Z,11.77
2022-11-08T04:27:56.387Z,13.35
2022-11-08T04:30:42.405Z,12.60
2022-11-08T04:33:28.397Z,14.00
2022-11-08T04:36:15.673Z,12.52
2022-11-08T04:39:01.296Z,13.45
2022-11-08T04:41:47.170Z,12.68
2022-11-08T04:44:32.979Z,10.68
2022-11-08T04:47:18.883Z,13.70
2022-11-08T04:50:04.778Z,12.07
2022-11-08T04:52:54.269Z,7.38
2022-11-08T04:55:40.133Z,12.43
2022-11-08T04:58:25.783Z,12.18
2022-11-08T05:01:12.735Z,13.30
2022-11-08T05:03:59.163Z,11.27
2022-11-08T05:06:44.955Z,12.43
2022-11-08T05:09:30.980Z,13.00
2022-11-08T05:12:16.998Z,14.30
2022-11-08T05:15:03.229Z,14.07
2022-11-08T05:17:49.157Z,13.15
2022-11-08T05:20:53.992Z,14.02
2022-11-08T05:23:40.163Z,13.82
2022-11-08T05:26:26.373Z,13.10
2022-11-08T05:29:13.008Z,12.32
2022-11-08T05:31:59.144Z,13.60
2022-11-08T05:34:45.464Z,4.07
2022-11-08T05:37:31.814Z,12.88
2022-11-08T05:40:17.812Z,12.45
2022-11-08T05:43:04.016Z,8.45
2022-11-08T05:45:50.028Z,12.05
2022-11-08T05:48:36.189Z,8.57
2022-11-08T05:51:22.324Z,14.95
2022-11-08T05:54:08.298Z,14.10
2022-11-08T05:56:54.514Z,15.15
2022-11-08T05:59:40.636Z,15.65
2022-11-08T06:02:26.798Z,14.23
2022-11-08T06:05:12.970Z,8.85
2022-11-08T06:07:59.106Z,5.65
2022-11-08T06:10:46.881Z,14.52
2022-11-08T06:13:33.881Z,17.95
2022-11-08T06:16:20.577Z,4.65
2022-11-08T06:19:06.552Z,18.35
2022-11-08T06:21:52.865Z,15.75
2022-11-08T06:24:38.925Z,14.60
2022-11-08T06:27:25.249Z,15.25
2022-11-08T06:30:11.448Z,14.23
2022-11-08T06:32:59.121Z,14.77
2022-11-08T06:35:45.183Z,14.45
2022-11-08T06:38:31.194Z,15.45
2022-11-08T06:41:19.068Z,9.98
2022-11-08T06:44:05.176Z,16.50
2022-11-08T06:46:51.352Z,6.13
2022-11-08T06:49:55.545Z,15.55
2022-11-08T06:52:41.666Z,15.68
2022-11-08T06:55:27.903Z,14.88
2022-11-08T06:58:13.710Z,13.68
2022-11-08T07:01:03.042Z,15.65
2022-11-08T07:03:49.160Z,14.02
2022-11-08T07:06:35.058Z,15.38
2022-11-08T07:09:21.116Z,14.95
2022-11-08T07:12:07.197Z,14.45
2022-11-08T07:14:53.161Z,14.07
2022-11-08T07:17:39.352Z,15.25
2022-11-08T07:20:25.425Z,14.15
2022-11-08T07:23:11.817Z,14.93
2022-11-08T07:26:00.583Z,7.55
2022-11-08T07:28:46.669Z,6.05
2022-11-08T07:31:32.318Z,13.55
2022-11-08T07:34:18.335Z,13.45
2022-11-08T07:37:04.113Z,14.13
2022-11-08T07:39:50.017Z,14.77
2022-11-08T07:43:04.784Z,14.93
2022-11-08T07:45:43.033Z,17.08
2022-11-08T07:48:29.640Z,11.73
2022-11-08T07:51:15.298Z,13.82
2022-11-08T07:54:03.217Z,13.65
2022-11-08T07:56:49.402Z,13.82
2022-11-08T07:59:35.357Z,10.40
2022-11-08T08:02:21.146Z,15.05
2022-11-08T08:05:07.304Z,13.40
2022-11-08T08:07:56.358Z,17.15
2022-11-08T08:10:42.302Z,14.95
2022-11-08T08:13:28.284Z,10.57
2022-11-08T08:16:14.445Z,15.50
2022-11-08T08:19:00.537Z,14.85
2022-11-08T08:21:46.586Z,12.98
2022-11-08T08:24:32.579Z,13.18
2022-11-08T08:27:18.537Z,12.45
2022-11-08T08:30:05.349Z,14.88
2022-11-08T08:33:08.283Z,7.70
2022-11-08T08:35:54.582Z,13.38
2022-11-08T08:38:44.591Z,14.25
2022-11-08T08:41:30.616Z,15.52
2022-11-08T08:44:16.627Z,14.45
2022-11-08T08:47:02.648Z,19.98
2022-11-08T08:49:48.995Z,26.13
2022-11-08T08:52:34.838Z,19.25
2022-11-08T08:55:21.034Z,15.27
2022-11-08T08:58:07.135Z,16.20
2022-11-08T09:03:58.810Z,18.20
2022-11-08T09:06:44.978Z,13.65
2022-11-08T09:09:31.055Z,14.75
2022-11-08T09:12:17.038Z,13.73
2022-11-08T09:15:04.073Z,12.15
2022-11-08T09:17:50.030Z,15.30
2022-11-08T09:20:39.777Z,11.88
2022-11-08T09:23:26.378Z,12.82
2022-11-08T09:26:12.481Z,14.45
2022-11-08T09:28:59.949Z,11.85
2022-11-08T09:31:46.070Z,14.90
2022-11-08T09:34:32.217Z,13.23
2022-11-08T09:37:18.330Z,21.98
2022-11-08T09:40:31.353Z,21.92
2022-11-08T15:41:29.560Z,53.30
2022-11-08T15:44:34.379Z,49.33
2022-11-08T15:47:34.772Z,49.60
2022-11-08T15:50:26.170Z,42.95
2022-11-08T15:53:15.487Z,37.45
2022-11-08T15:56:02.242Z,24.23
2022-11-08T15:58:48.210Z,16.30
2022-11-08T16:01:37.617Z,19.70
2022-11-08T16:04:27.099Z,26.05
2022-11-08T16:07:13.207Z,26.58
2022-11-08T16:10:08.401Z,17.20
2022-11-08T16:12:54.558Z,21.90
2022-11-08T16:15:40.567Z,21.48
2022-11-08T16:18:26.572Z,23.77
2022-11-08T16:21:13.512Z,20.27
2022-11-08T16:23:59.594Z,16.85
2022-11-08T16:26:46.836Z,13.75
2022-11-08T16:29:34.984Z,14.95
2022-11-08T16:32:20.561Z,17.60
2022-11-08T16:35:06.720Z,15.48
2022-11-08T16:37:53.666Z,15.43
2022-11-08T16:40:41.411Z,14.98
2022-11-08T16:43:46.577Z,16.55
2022-11-08T16:46:32.606Z,15.90
2022-11-08T16:49:22.174Z,15.43
2022-11-08T16:52:10.302Z,16.27
2022-11-08T16:54:56.744Z,14.45
2022-11-08T16:57:42.392Z,16.55
2022-11-08T17:00:28.662Z,15.40
2022-11-08T17:03:22.590Z,15.00
2022-11-08T17:06:12.837Z,16.80
2022-11-08T17:08:58.914Z,24.92
2022-11-08T17:11:46.283Z,40.42
2022-11-08T17:14:32.317Z,31.77
2022-11-08T17:17:18.259Z,37.90
2022-11-08T17:20:07.423Z,29.75
2022-11-08T17:22:53.346Z,21.80
2022-11-08T17:25:43.152Z,11.02
2022-11-08T17:28:29.304Z,20.45
2022-11-08T17:31:19.088Z,20.77
2022-11-08T17:34:05.060Z,13.38
2022-11-08T17:36:53.474Z,5.28
2022-11-08T17:39:48.128Z,5.00
2022-11-08T17:42:40.852Z,12.13
2022-11-08T17:46:09.700Z,7.60
2022-11-08T17:48:55.619Z,19.95
2022-11-08T17:51:41.522Z,10.05
2022-11-08T17:54:27.598Z,16.60
2022-11-08T17:57:13.588Z,16.45
2022-11-08T17:59:59.422Z,9.27
2022-11-08T18:02:45.903Z,10.35
2022-11-08T18:05:31.930Z,17.23
2022-11-08T18:08:18.228Z,17.80
2022-11-08T18:11:05.981Z,13.57
2022-11-08T18:13:51.646Z,8.45
2022-11-08T18:16:37.904Z,19.23
2022-11-08T18:19:23.957Z,13.93
2022-11-08T18:22:09.929Z,18.27
2022-11-08T18:24:55.870Z,9.15
2022-11-08T18:27:41.889Z,4.20
2022-11-08T18:30:27.891Z,13.32
2022-11-08T18:33:14.069Z,8.82
2022-11-08T18:36:08.091Z,3.40
2022-11-08T18:38:54.773Z,15.70
2022-11-08T18:41:40.734Z,3.75
2022-11-08T18:44:26.915Z,6.15
2022-11-08T18:47:13.056Z,10.32
2022-11-08T18:50:01.971Z,4.63
2022-11-08T18:52:48.294Z,4.53
2022-11-08T18:55:34.315Z,9.05
2022-11-08T18:58:20.506Z,8.15
2022-11-08T19:01:07.303Z,9.43
2022-11-08T19:03:54.484Z,5.18
2022-11-08T19:06:40.862Z,3.67
2022-11-08T19:09:29.487Z,4.57
2022-11-08T19:12:19.661Z,2.75
2022-11-08T19:15:08.830Z,17.92
2022-11-08T19:17:55.117Z,5.80
2022-11-08T19:20:40.926Z,6.25
2022-11-08T19:23:27.135Z,16.77
2022-11-08T19:26:17.566Z,11.52
2022-11-08T19:29:04.218Z,9.25
2022-11-08T19:31:50.931Z,8.60
2022-11-08T19:34:41.291Z,14.95
2022-11-08T19:37:27.089Z,8.10
2022-11-08T19:40:13.165Z,22.92
2022-11-08T19:42:59.199Z,16.85
2022-11-08T19:45:50.649Z,13.15
2022-11-08T19:48:39.107Z,7.88
2022-11-08T19:51:28.238Z,20.73
2022-11-08T19:54:14.983Z,22.50
2022-11-08T19:57:05.592Z,8.13
2022-11-08T19:59:52.149Z,25.10
2022-11-08T20:02:38.427Z,9.82
2022-11-08T20:05:24.410Z,9.45
2022-11-08T20:08:12.341Z,15.75
2022-11-08T20:10:58.815Z,6.43
2022-11-08T20:13:50.103Z,10.20
2022-11-08T20:16:40.227Z,6.85
2022-11-08T20:19:26.555Z,11.60
2022-11-08T20:22:12.686Z,3.78
2022-11-08T20:24:59.117Z,17.65
2022-11-08T20:27:48.050Z,7.15
2022-11-08T20:30:34.738Z,10.75
2022-11-08T20:33:20.755Z,14.52
2022-11-08T20:36:08.170Z,18.35
2022-11-08T20:39:03.685Z,6.72
2022-11-08T20:41:52.306Z,4.82
2022-11-08T20:44:40.410Z,6.30
2022-11-08T20:47:26.709Z,16.23
2022-11-08T20:50:15.250Z,15.30
2022-11-08T20:53:02.113Z,4.50
2022-11-08T20:55:55.734Z,18.42
2022-11-08T20:58:42.927Z,5.13
2022-11-08T21:01:29.761Z,4.88
2022-11-08T21:04:16.631Z,8.57
2022-11-08T21:10:40.795Z,3.33
2022-11-08T21:13:19.289Z,6.80
2022-11-08T21:16:28.593Z,5.80
2022-11-08T21:19:15.161Z,8.10
2022-11-08T21:22:17.111Z,3.92
2022-11-08T21:25:03.860Z,3.97
2022-11-08T21:27:49.913Z,5.07
2022-11-08T21:30:36.354Z,10.05
2022-11-08T21:33:25.875Z,7.90
2022-11-08T21:36:12.608Z,3.28
2022-11-08T21:38:58.447Z,5.55
2022-11-08T21:41:44.329Z,3.17
2022-11-08T21:44:30.524Z,11.38
2022-11-08T21:47:17.036Z,5.95
2022-11-08T21:50:05.929Z,6.97
2022-11-08T21:52:51.777Z,3.30
2022-11-08T21:55:37.711Z,7.82
2022-11-08T21:58:24.885Z,5.05
2022-11-08T22:01:11.046Z,8.70
2022-11-08T22:03:57.615Z,3.10
2022-11-08T22:06:47.450Z,10.75
2022-11-08T22:09:33.705Z,4.03
2022-11-08T22:12:19.439Z,9.98
2022-11-08T22:15:05.670Z,3.65
2022-11-08T22:21:15.839Z,5.93
2022-11-08T22:24:02.262Z,9.23
2022-11-08T22:26:49.080Z,7.15
2022-11-08T22:29:34.950Z,4.75
2022-11-08T22:32:20.768Z,2.47
2022-11-08T22:35:08.035Z,7.00
2022-11-08T22:37:54.257Z,3.00
2022-11-08T22:40:41.165Z,6.35
2022-11-08T22:43:28.079Z,6.00
2022-11-08T22:46:14.623Z,9.40
2022-11-08T22:49:00.176Z,8.40
2022-11-08T22:51:46.388Z,6.65
2022-11-08T22:54:32.351Z,4.53
2022-11-08T22:57:18.649Z,8.52
2022-11-08T23:00:10.278Z,11.55
2022-11-08T23:02:57.505Z,6.93
2022-11-08T23:05:48.342Z,10.50
2022-11-08T23:08:34.396Z,6.28
2022-11-08T23:11:40.253Z,18.45
2022-11-08T23:14:45.325Z,4.18
2022-11-08T23:17:31.426Z,7.03
2022-11-08T23:20:36.432Z,4.88
2022-11-08T23:24:01.196Z,4.88
2022-11-08T23:27:05.933Z,5.07
2022-11-08T23:30:10.516Z,8.93
2022-11-08T23:32:56.397Z,6.53
2022-11-08T23:36:02.611Z,5.80
2022-11-08T23:38:48.482Z,6.43
2022-11-08T23:41:53.367Z,19.52
2022-11-08T23:44:39.233Z,6.63
2022-11-08T23:47:25.430Z,7.38
2022-11-08T23:50:11.848Z,13.63
2022-11-08T23:52:59.317Z,5.00
2022-11-08T23:55:45.145Z,4.57
2022-11-08T23:58:31.792Z,5.47
